sensor_id;sensor_type;location;lat;lon;timestamp;temperature;humidity
15713;DHT22;7957;51.608;6.916;2023-04-03T00:01:46;4.50;99.90
15713;DHT22;7957;51.608;6.916;2023-04-03T00:04:14;4.50;99.90
15713;DHT22;7957;51.608;6.916;2023-04-03T00:06:41;4.40;99.90
15713;DHT22;7957;51.608;6.916;2023-04-03T00:09:08;4.40;99.90
15713;DHT22;7957;51.608;6.916;2023-04-03T00:11:35;4.40;99.90
15713;DHT22;7957;51.608;6.916;2023-04-03T00:14:02;4.40;99.90
15713;DHT22;7957;51.608;6.916;2023-04-03T00:16:29;4.40;99.90
15713;DHT22;7957;51.608;6.916;2023-04-03T00:18:56;4.40;99.90
15713;DHT22;7957;51.608;6.916;2023-04-03T00:21:24;4.40;99.90
15713;DHT22;7957;51.608;6.916;2023-04-03T00:23:51;4.40;99.90
15713;DHT22;7957;51.608;6.916;2023-04-03T00:26:18;4.30;99.90
15713;DHT22;7957;51.608;6.916;2023-04-03T00:28:46;4.30;99.90
15713;DHT22;7957;51.608;6.916;2023-04-03T00:31:14;4.40;99.90
15713;DHT22;7957;51.608;6.916;2023-04-03T00:33:41;4.30;99.90
15713;DHT22;7957;51.608;6.916;2023-04-03T00:36:09;4.30;99.90
15713;DHT22;7957;51.608;6.916;2023-04-03T00:38:38;4.30;99.90
15713;DHT22;7957;51.608;6.916;2023-04-03T00:41:05;4.30;99.90
15713;DHT22;7957;51.608;6.916;2023-04-03T00:43:32;4.30;99.90
15713;DHT22;7957;51.608;6.916;2023-04-03T00:45:59;4.30;99.90
15713;DHT22;7957;51.608;6.916;2023-04-03T00:48:30;4.20;99.90
15713;DHT22;7957;51.608;6.916;2023-04-03T00:50:58;4.20;99.90
15713;DHT22;7957;51.608;6.916;2023-04-03T00:53:27;4.20;99.90
15713;DHT22;7957;51.608;6.916;2023-04-03T00:55:57;4.20;99.90
15713;DHT22;7957;51.608;6.916;2023-04-03T00:58:31;4.20;99.90
15713;DHT22;7957;51.608;6.916;2023-04-03T01:01:05;4.20;99.90
15713;DHT22;7957;51.608;6.916;2023-04-03T01:03:33;4.20;99.90
15713;DHT22;7957;51.608;6.916;2023-04-03T01:06:00;4.10;99.90
15713;DHT22;7957;51.608;6.916;2023-04-03T01:08:27;4.10;99.90
15713;DHT22;7957;51.608;6.916;2023-04-03T01:10:54;4.10;99.90
15713;DHT22;7957;51.608;6.916;2023-04-03T01:13:24;4.10;99.90
15713;DHT22;7957;51.608;6.916;2023-04-03T01:15:52;4.10;99.90
15713;DHT22;7957;51.608;6.916;2023-04-03T01:18:19;4.10;99.90
15713;DHT22;7957;51.608;6.916;2023-04-03T01:21:15;4.10;99.90
15713;DHT22;7957;51.608;6.916;2023-04-03T01:24:08;4.10;99.90
15713;DHT22;7957;51.608;6.916;2023-04-03T01:26:38;4.00;99.90
15713;DHT22;7957;51.608;6.916;2023-04-03T01:29:07;4.10;99.90
15713;DHT22;7957;51.608;6.916;2023-04-03T01:31:48;4.00;99.90
15713;DHT22;7957;51.608;6.916;2023-04-03T01:34:15;4.00;99.90
15713;DHT22;7957;51.608;6.916;2023-04-03T01:36:42;4.00;99.90
15713;DHT22;7957;51.608;6.916;2023-04-03T01:39:09;4.00;99.90
15713;DHT22;7957;51.608;6.916;2023-04-03T01:41:36;4.00;99.90
15713;DHT22;7957;51.608;6.916;2023-04-03T01:44:03;3.90;99.90
15713;DHT22;7957;51.608;6.916;2023-04-03T01:46:31;3.90;99.90
15713;DHT22;7957;51.608;6.916;2023-04-03T01:49:00;3.90;99.90
15713;DHT22;7957;51.608;6.916;2023-04-03T01:51:27;3.90;99.90
15713;DHT22;7957;51.608;6.916;2023-04-03T01:53:54;3.90;99.90
15713;DHT22;7957;51.608;6.916;2023-04-03T01:56:21;3.90;99.90
15713;DHT22;7957;51.608;6.916;2023-04-03T01:58:48;3.90;99.90
15713;DHT22;7957;51.608;6.916;2023-04-03T02:01:15;3.90;99.90
15713;DHT22;7957;51.608;6.916;2023-04-03T02:03:41;3.80;99.90
15713;DHT22;7957;51.608;6.916;2023-04-03T02:06:10;3.80;99.90
15713;DHT22;7957;51.608;6.916;2023-04-03T02:08:37;3.80;99.90
15713;DHT22;7957;51.608;6.916;2023-04-03T02:11:04;3.80;99.90
15713;DHT22;7957;51.608;6.916;2023-04-03T02:13:31;3.80;99.90
15713;DHT22;7957;51.608;6.916;2023-04-03T02:15:57;3.80;99.90
15713;DHT22;7957;51.608;6.916;2023-04-03T02:18:25;3.80;99.90
15713;DHT22;7957;51.608;6.916;2023-04-03T02:20:52;3.80;99.90
15713;DHT22;7957;51.608;6.916;2023-04-03T02:23:21;3.80;99.90
15713;DHT22;7957;51.608;6.916;2023-04-03T02:25:48;3.70;99.90
15713;DHT22;7957;51.608;6.916;2023-04-03T02:28:15;3.70;99.90
15713;DHT22;7957;51.608;6.916;2023-04-03T02:30:42;3.70;99.90
15713;DHT22;7957;51.608;6.916;2023-04-03T02:33:09;3.70;99.90
15713;DHT22;7957;51.608;6.916;2023-04-03T02:35:36;3.70;99.90
15713;DHT22;7957;51.608;6.916;2023-04-03T02:38:05;3.70;99.90
15713;DHT22;7957;51.608;6.916;2023-04-03T02:40:33;3.70;99.90
15713;DHT22;7957;51.608;6.916;2023-04-03T02:43:00;3.70;99.90
15713;DHT22;7957;51.608;6.916;2023-04-03T02:45:27;3.70;99.90
15713;DHT22;7957;51.608;6.916;2023-04-03T02:47:54;3.70;99.90
15713;DHT22;7957;51.608;6.916;2023-04-03T02:50:21;3.70;99.90
15713;DHT22;7957;51.608;6.916;2023-04-03T02:52:48;3.70;99.90
15713;DHT22;7957;51.608;6.916;2023-04-03T02:55:15;3.70;99.90
15713;DHT22;7957;51.608;6.916;2023-04-03T02:57:43;3.70;99.90
15713;DHT22;7957;51.608;6.916;2023-04-03T03:00:11;3.70;99.90
15713;DHT22;7957;51.608;6.916;2023-04-03T03:02:38;3.70;99.90
15713;DHT22;7957;51.608;6.916;2023-04-03T03:05:05;3.60;99.90
15713;DHT22;7957;51.608;6.916;2023-04-03T03:07:33;3.60;99.90
15713;DHT22;7957;51.608;6.916;2023-04-03T03:10:00;3.60;99.90
15713;DHT22;7957;51.608;6.916;2023-04-03T03:12:27;3.60;99.90
15713;DHT22;7957;51.608;6.916;2023-04-03T03:14:55;3.60;99.90
15713;DHT22;7957;51.608;6.916;2023-04-03T03:17:22;3.60;99.90
15713;DHT22;7957;51.608;6.916;2023-04-03T03:19:49;3.60;99.90
15713;DHT22;7957;51.608;6.916;2023-04-03T03:22:16;3.60;99.90
15713;DHT22;7957;51.608;6.916;2023-04-03T03:24:43;3.60;99.90
15713;DHT22;7957;51.608;6.916;2023-04-03T03:27:10;3.60;99.90
15713;DHT22;7957;51.608;6.916;2023-04-03T03:29:38;3.60;99.90
15713;DHT22;7957;51.608;6.916;2023-04-03T03:32:06;3.60;99.90
15713;DHT22;7957;51.608;6.916;2023-04-03T03:34:33;3.60;99.90
15713;DHT22;7957;51.608;6.916;2023-04-03T03:37:00;3.60;99.90
15713;DHT22;7957;51.608;6.916;2023-04-03T03:39:27;3.60;99.90
15713;DHT22;7957;51.608;6.916;2023-04-03T03:41:54;3.60;99.90
15713;DHT22;7957;51.608;6.916;2023-04-03T03:44:21;3.50;99.90
15713;DHT22;7957;51.608;6.916;2023-04-03T03:46:48;3.60;99.90
15713;DHT22;7957;51.608;6.916;2023-04-03T03:49:17;3.50;99.90
15713;DHT22;7957;51.608;6.916;2023-04-03T03:51:44;3.60;99.90
15713;DHT22;7957;51.608;6.916;2023-04-03T03:54:12;3.50;99.90
15713;DHT22;7957;51.608;6.916;2023-04-03T03:56:39;3.60;99.90
15713;DHT22;7957;51.608;6.916;2023-04-03T03:59:06;3.50;99.90
15713;DHT22;7957;51.608;6.916;2023-04-03T04:01:33;3.50;99.90
15713;DHT22;7957;51.608;6.916;2023-04-03T04:04:00;3.50;99.90
15713;DHT22;7957;51.608;6.916;2023-04-03T04:06:28;3.50;99.90
15713;DHT22;7957;51.608;6.916;2023-04-03T04:08:55;3.50;99.90
15713;DHT22;7957;51.608;6.916;2023-04-03T04:11:22;3.50;99.90
15713;DHT22;7957;51.608;6.916;2023-04-03T04:13:49;3.50;99.90
15713;DHT22;7957;51.608;6.916;2023-04-03T04:16:16;3.50;99.90
15713;DHT22;7957;51.608;6.916;2023-04-03T04:18:43;3.50;99.90
15713;DHT22;7957;51.608;6.916;2023-04-03T04:21:10;3.50;99.90
15713;DHT22;7957;51.608;6.916;2023-04-03T04:23:38;3.40;99.90
15713;DHT22;7957;51.608;6.916;2023-04-03T04:26:06;3.50;99.90
15713;DHT22;7957;51.608;6.916;2023-04-03T04:28:33;3.40;99.90
15713;DHT22;7957;51.608;6.916;2023-04-03T04:31:00;3.40;99.90
15713;DHT22;7957;51.608;6.916;2023-04-03T04:33:27;3.40;99.90
15713;DHT22;7957;51.608;6.916;2023-04-03T04:35:54;3.40;99.90
15713;DHT22;7957;51.608;6.916;2023-04-03T04:38:21;3.40;99.90
15713;DHT22;7957;51.608;6.916;2023-04-03T04:40:49;3.40;99.90
15713;DHT22;7957;51.608;6.916;2023-04-03T04:43:16;3.40;99.90
15713;DHT22;7957;51.608;6.916;2023-04-03T04:45:43;3.30;99.90
15713;DHT22;7957;51.608;6.916;2023-04-03T04:48:10;3.30;99.90
15713;DHT22;7957;51.608;6.916;2023-04-03T04:50:37;3.30;99.90
15713;DHT22;7957;51.608;6.916;2023-04-03T04:53:04;3.30;99.90
15713;DHT22;7957;51.608;6.916;2023-04-03T04:55:31;3.30;99.90
15713;DHT22;7957;51.608;6.916;2023-04-03T04:58:00;3.30;99.90
15713;DHT22;7957;51.608;6.916;2023-04-03T05:00:26;3.30;99.90
15713;DHT22;7957;51.608;6.916;2023-04-03T05:02:53;3.20;99.90
15713;DHT22;7957;51.608;6.916;2023-04-03T05:05:20;3.20;99.90
15713;DHT22;7957;51.608;6.916;2023-04-03T05:07:48;3.20;99.90
15713;DHT22;7957;51.608;6.916;2023-04-03T05:10:14;3.20;99.90
15713;DHT22;7957;51.608;6.916;2023-04-03T05:12:41;3.20;99.90
15713;DHT22;7957;51.608;6.916;2023-04-03T05:15:10;3.10;99.90
15713;DHT22;7957;51.608;6.916;2023-04-03T05:17:37;3.20;99.90
15713;DHT22;7957;51.608;6.916;2023-04-03T05:20:05;3.10;99.90
15713;DHT22;7957;51.608;6.916;2023-04-03T05:22:32;3.10;99.90
15713;DHT22;7957;51.608;6.916;2023-04-03T05:24:59;3.10;99.90
15713;DHT22;7957;51.608;6.916;2023-04-03T05:27:26;3.10;99.90
15713;DHT22;7957;51.608;6.916;2023-04-03T05:29:54;3.10;99.90
15713;DHT22;7957;51.608;6.916;2023-04-03T05:32:23;3.10;99.90
15713;DHT22;7957;51.608;6.916;2023-04-03T05:34:50;3.10;99.90
15713;DHT22;7957;51.608;6.916;2023-04-03T05:37:18;3.10;99.90
15713;DHT22;7957;51.608;6.916;2023-04-03T05:39:45;3.10;99.90
15713;DHT22;7957;51.608;6.916;2023-04-03T05:42:12;3.10;99.90
15713;DHT22;7957;51.608;6.916;2023-04-03T05:44:40;3.10;99.90
15713;DHT22;7957;51.608;6.916;2023-04-03T05:47:07;3.10;99.90
15713;DHT22;7957;51.608;6.916;2023-04-03T05:49:35;3.10;99.90
15713;DHT22;7957;51.608;6.916;2023-04-03T05:52:06;3.10;99.90
15713;DHT22;7957;51.608;6.916;2023-04-03T05:54:33;3.20;99.90
15713;DHT22;7957;51.608;6.916;2023-04-03T05:57:00;3.20;99.90
15713;DHT22;7957;51.608;6.916;2023-04-03T05:59:27;3.20;99.90
15713;DHT22;7957;51.608;6.916;2023-04-03T06:01:54;3.20;99.90
15713;DHT22;7957;51.608;6.916;2023-04-03T06:04:21;3.30;99.90
15713;DHT22;7957;51.608;6.916;2023-04-03T06:06:51;3.30;99.90
15713;DHT22;7957;51.608;6.916;2023-04-03T06:09:19;3.30;99.90
15713;DHT22;7957;51.608;6.916;2023-04-03T06:11:47;3.30;99.90
15713;DHT22;7957;51.608;6.916;2023-04-03T06:14:14;3.30;99.90
15713;DHT22;7957;51.608;6.916;2023-04-03T06:16:41;3.30;99.90
15713;DHT22;7957;51.608;6.916;2023-04-03T06:19:12;3.40;99.90
15713;DHT22;7957;51.608;6.916;2023-04-03T06:21:39;3.40;99.90
15713;DHT22;7957;51.608;6.916;2023-04-03T06:24:07;3.40;99.90
15713;DHT22;7957;51.608;6.916;2023-04-03T06:26:35;3.40;99.90
15713;DHT22;7957;51.608;6.916;2023-04-03T06:29:02;3.40;99.90
15713;DHT22;7957;51.608;6.916;2023-04-03T06:31:28;3.40;99.90
15713;DHT22;7957;51.608;6.916;2023-04-03T06:33:55;3.50;99.90
15713;DHT22;7957;51.608;6.916;2023-04-03T06:36:22;3.50;99.90
15713;DHT22;7957;51.608;6.916;2023-04-03T06:38:49;3.50;99.90
15713;DHT22;7957;51.608;6.916;2023-04-03T06:41:17;3.50;99.90
15713;DHT22;7957;51.608;6.916;2023-04-03T06:43:45;3.50;99.90
15713;DHT22;7957;51.608;6.916;2023-04-03T06:46:15;3.60;99.90
15713;DHT22;7957;51.608;6.916;2023-04-03T06:48:43;3.60;99.90
15713;DHT22;7957;51.608;6.916;2023-04-03T06:51:17;3.60;99.90
15713;DHT22;7957;51.608;6.916;2023-04-03T06:53:45;3.60;99.90
15713;DHT22;7957;51.608;6.916;2023-04-03T06:56:12;3.60;99.90
15713;DHT22;7957;51.608;6.916;2023-04-03T06:58:41;3.60;99.90
15713;DHT22;7957;51.608;6.916;2023-04-03T07:01:08;3.70;99.90
15713;DHT22;7957;51.608;6.916;2023-04-03T07:03:36;3.60;99.90
15713;DHT22;7957;51.608;6.916;2023-04-03T07:06:03;3.70;99.90
15713;DHT22;7957;51.608;6.916;2023-04-03T07:08:31;3.70;99.90
15713;DHT22;7957;51.608;6.916;2023-04-03T07:10:58;3.70;99.90
15713;DHT22;7957;51.608;6.916;2023-04-03T07:13:25;3.80;99.90
15713;DHT22;7957;51.608;6.916;2023-04-03T07:15:53;3.80;99.90
15713;DHT22;7957;51.608;6.916;2023-04-03T07:18:20;3.80;99.90
15713;DHT22;7957;51.608;6.916;2023-04-03T07:20:48;3.90;99.90
15713;DHT22;7957;51.608;6.916;2023-04-03T07:23:15;3.90;99.90
15713;DHT22;7957;51.608;6.916;2023-04-03T07:25:43;3.90;99.90
15713;DHT22;7957;51.608;6.916;2023-04-03T07:28:10;4.00;99.90
15713;DHT22;7957;51.608;6.916;2023-04-03T07:30:44;4.10;99.90
15713;DHT22;7957;51.608;6.916;2023-04-03T07:33:14;4.10;99.90
15713;DHT22;7957;51.608;6.916;2023-04-03T07:35:41;4.10;99.90
15713;DHT22;7957;51.608;6.916;2023-04-03T07:38:09;4.10;99.90
15713;DHT22;7957;51.608;6.916;2023-04-03T07:40:37;4.10;99.90
15713;DHT22;7957;51.608;6.916;2023-04-03T07:43:04;4.10;99.90
15713;DHT22;7957;51.608;6.916;2023-04-03T07:45:33;4.10;99.90
15713;DHT22;7957;51.608;6.916;2023-04-03T07:48:01;4.20;99.90
15713;DHT22;7957;51.608;6.916;2023-04-03T07:50:29;4.30;99.90
15713;DHT22;7957;51.608;6.916;2023-04-03T07:52:57;4.30;99.90
15713;DHT22;7957;51.608;6.916;2023-04-03T07:55:25;4.30;99.90
15713;DHT22;7957;51.608;6.916;2023-04-03T07:57:52;4.40;99.90
15713;DHT22;7957;51.608;6.916;2023-04-03T08:00:19;4.40;99.90
15713;DHT22;7957;51.608;6.916;2023-04-03T08:02:46;4.50;99.90
15713;DHT22;7957;51.608;6.916;2023-04-03T08:05:16;4.60;99.90
15713;DHT22;7957;51.608;6.916;2023-04-03T08:07:45;4.80;99.90
15713;DHT22;7957;51.608;6.916;2023-04-03T08:10:12;4.90;99.90
15713;DHT22;7957;51.608;6.916;2023-04-03T08:12:39;5.10;99.90
15713;DHT22;7957;51.608;6.916;2023-04-03T08:15:08;5.30;99.90
15713;DHT22;7957;51.608;6.916;2023-04-03T08:17:35;5.50;99.90
15713;DHT22;7957;51.608;6.916;2023-04-03T08:20:03;5.80;99.90
15713;DHT22;7957;51.608;6.916;2023-04-03T08:22:30;6.20;99.90
15713;DHT22;7957;51.608;6.916;2023-04-03T08:24:58;6.50;99.90
15713;DHT22;7957;51.608;6.916;2023-04-03T08:27:26;6.70;99.90
15713;DHT22;7957;51.608;6.916;2023-04-03T08:29:54;6.90;99.90
15713;DHT22;7957;51.608;6.916;2023-04-03T08:32:21;7.00;99.90
15713;DHT22;7957;51.608;6.916;2023-04-03T08:34:47;7.20;99.90
15713;DHT22;7957;51.608;6.916;2023-04-03T08:37:15;7.40;99.90
15713;DHT22;7957;51.608;6.916;2023-04-03T08:39:43;7.50;99.90
15713;DHT22;7957;51.608;6.916;2023-04-03T08:42:16;7.60;1.00
15713;DHT22;7957;51.608;6.916;2023-04-03T08:44:48;7.70;1.00
15713;DHT22;7957;51.608;6.916;2023-04-03T08:47:24;7.80;99.90
15713;DHT22;7957;51.608;6.916;2023-04-03T08:49:53;7.90;1.00
15713;DHT22;7957;51.608;6.916;2023-04-03T08:52:27;8.00;99.90
15713;DHT22;7957;51.608;6.916;2023-04-03T08:55:00;8.10;99.90
15713;DHT22;7957;51.608;6.916;2023-04-03T08:57:32;8.10;1.00
15713;DHT22;7957;51.608;6.916;2023-04-03T09:00:01;8.20;1.00
15713;DHT22;7957;51.608;6.916;2023-04-03T09:02:33;8.20;1.00
15713;DHT22;7957;51.608;6.916;2023-04-03T09:05:01;8.30;99.90
15713;DHT22;7957;51.608;6.916;2023-04-03T09:07:39;8.40;99.90
15713;DHT22;7957;51.608;6.916;2023-04-03T09:10:10;8.50;99.90
15713;DHT22;7957;51.608;6.916;2023-04-03T09:12:42;8.60;51.40
15713;DHT22;7957;51.608;6.916;2023-04-03T09:15:17;8.60;1.00
15713;DHT22;7957;51.608;6.916;2023-04-03T09:17:53;8.70;1.00
15713;DHT22;7957;51.608;6.916;2023-04-03T09:20:30;8.90;1.00
15713;DHT22;7957;51.608;6.916;2023-04-03T09:22:59;9.00;1.00
15713;DHT22;7957;51.608;6.916;2023-04-03T09:25:28;9.00;1.00
15713;DHT22;7957;51.608;6.916;2023-04-03T09:28:00;9.10;99.90
15713;DHT22;7957;51.608;6.916;2023-04-03T09:30:28;9.00;99.90
15713;DHT22;7957;51.608;6.916;2023-04-03T09:32:56;9.10;96.50
15713;DHT22;7957;51.608;6.916;2023-04-03T09:35:25;9.10;1.00
15713;DHT22;7957;51.608;6.916;2023-04-03T09:37:54;9.20;1.00
15713;DHT22;7957;51.608;6.916;2023-04-03T09:40:34;9.30;1.00
15713;DHT22;7957;51.608;6.916;2023-04-03T09:43:21;9.30;1.00
15713;DHT22;7957;51.608;6.916;2023-04-03T09:45:49;9.40;1.00
15713;DHT22;7957;51.608;6.916;2023-04-03T09:48:19;9.50;1.00
15713;DHT22;7957;51.608;6.916;2023-04-03T09:50:58;9.50;1.00
15713;DHT22;7957;51.608;6.916;2023-04-03T09:53:29;9.60;1.00
15713;DHT22;7957;51.608;6.916;2023-04-03T09:55:57;9.70;99.90
15713;DHT22;7957;51.608;6.916;2023-04-03T09:58:28;9.80;99.90
15713;DHT22;7957;51.608;6.916;2023-04-03T10:00:57;9.80;99.90
15713;DHT22;7957;51.608;6.916;2023-04-03T10:03:29;9.90;99.90
15713;DHT22;7957;51.608;6.916;2023-04-03T10:05:57;10.00;99.90
15713;DHT22;7957;51.608;6.916;2023-04-03T10:08:27;10.00;99.90
15713;DHT22;7957;51.608;6.916;2023-04-03T10:11:12;10.10;99.90
15713;DHT22;7957;51.608;6.916;2023-04-03T10:13:54;10.10;99.90
15713;DHT22;7957;51.608;6.916;2023-04-03T10:16:26;10.10;65.10
15713;DHT22;7957;51.608;6.916;2023-04-03T10:19:02;10.20;1.00
15713;DHT22;7957;51.608;6.916;2023-04-03T10:21:39;10.30;1.00
15713;DHT22;7957;51.608;6.916;2023-04-03T10:24:11;10.40;1.00
15713;DHT22;7957;51.608;6.916;2023-04-03T10:26:46;10.50;1.00
15713;DHT22;7957;51.608;6.916;2023-04-03T10:29:32;10.50;1.00
15713;DHT22;7957;51.608;6.916;2023-04-03T10:32:16;10.50;1.00
15713;DHT22;7957;51.608;6.916;2023-04-03T10:34:52;10.60;1.00
15713;DHT22;7957;51.608;6.916;2023-04-03T10:37:26;10.60;1.00
15713;DHT22;7957;51.608;6.916;2023-04-03T10:39:58;10.70;1.00
15713;DHT22;7957;51.608;6.916;2023-04-03T10:42:30;10.80;1.00
15713;DHT22;7957;51.608;6.916;2023-04-03T10:45:11;10.70;1.00
15713;DHT22;7957;51.608;6.916;2023-04-03T10:47:48;10.70;1.00
15713;DHT22;7957;51.608;6.916;2023-04-03T10:50:29;10.70;1.00
15713;DHT22;7957;51.608;6.916;2023-04-03T10:53:04;10.70;1.00
15713;DHT22;7957;51.608;6.916;2023-04-03T10:55:36;10.70;1.00
15713;DHT22;7957;51.608;6.916;2023-04-03T10:58:05;10.70;99.90
15713;DHT22;7957;51.608;6.916;2023-04-03T11:00:39;10.70;99.90
15713;DHT22;7957;51.608;6.916;2023-04-03T11:03:11;10.80;99.90
15713;DHT22;7957;51.608;6.916;2023-04-03T11:05:42;11.00;99.90
15713;DHT22;7957;51.608;6.916;2023-04-03T11:08:15;11.20;99.90
15713;DHT22;7957;51.608;6.916;2023-04-03T11:10:46;11.20;99.90
15713;DHT22;7957;51.608;6.916;2023-04-03T11:13:18;11.40;99.90
15713;DHT22;7957;51.608;6.916;2023-04-03T11:15:51;11.60;99.90
15713;DHT22;7957;51.608;6.916;2023-04-03T11:18:22;11.90;99.90
15713;DHT22;7957;51.608;6.916;2023-04-03T11:20:58;12.20;99.90
15713;DHT22;7957;51.608;6.916;2023-04-03T11:23:31;12.60;99.90
15713;DHT22;7957;51.608;6.916;2023-04-03T11:26:07;12.90;99.90
15713;DHT22;7957;51.608;6.916;2023-04-03T11:28:36;13.20;99.90
15713;DHT22;7957;51.608;6.916;2023-04-03T11:31:12;13.40;99.90
15713;DHT22;7957;51.608;6.916;2023-04-03T11:33:49;13.80;99.90
15713;DHT22;7957;51.608;6.916;2023-04-03T11:36:21;14.00;99.90
15713;DHT22;7957;51.608;6.916;2023-04-03T11:38:52;14.30;99.90
15713;DHT22;7957;51.608;6.916;2023-04-03T11:41:26;14.50;99.90
15713;DHT22;7957;51.608;6.916;2023-04-03T11:43:59;14.80;99.90
15713;DHT22;7957;51.608;6.916;2023-04-03T11:46:53;15.10;99.90
15713;DHT22;7957;51.608;6.916;2023-04-03T11:49:50;15.30;99.90
15713;DHT22;7957;51.608;6.916;2023-04-03T11:55:58;15.70;99.90
15713;DHT22;7957;51.608;6.916;2023-04-03T11:58:26;16.00;73.40
15713;DHT22;7957;51.608;6.916;2023-04-03T12:01:03;16.10;29.30
15713;DHT22;7957;51.608;6.916;2023-04-03T12:09:27;16.40;1.00
15713;DHT22;7957;51.608;6.916;2023-04-03T12:11:56;16.60;1.00
15713;DHT22;7957;51.608;6.916;2023-04-03T12:14:24;16.80;1.00
15713;DHT22;7957;51.608;6.916;2023-04-03T12:16:53;16.90;1.00
15713;DHT22;7957;51.608;6.916;2023-04-03T12:19:37;17.00;1.00
15713;DHT22;7957;51.608;6.916;2023-04-03T12:22:16;17.10;1.00
15713;DHT22;7957;51.608;6.916;2023-04-03T12:24:47;17.10;1.00
15713;DHT22;7957;51.608;6.916;2023-04-03T12:27:34;17.00;1.00
15713;DHT22;7957;51.608;6.916;2023-04-03T12:30:13;17.10;1.00
15713;DHT22;7957;51.608;6.916;2023-04-03T12:33:12;17.20;1.00
15713;DHT22;7957;51.608;6.916;2023-04-03T12:35:46;17.30;1.00
15713;DHT22;7957;51.608;6.916;2023-04-03T12:38:46;17.20;1.00
15713;DHT22;7957;51.608;6.916;2023-04-03T12:41:21;17.10;1.00
15713;DHT22;7957;51.608;6.916;2023-04-03T12:44:01;17.10;1.00
15713;DHT22;7957;51.608;6.916;2023-04-03T12:46:36;17.10;99.90
15713;DHT22;7957;51.608;6.916;2023-04-03T12:49:22;17.00;99.90
15713;DHT22;7957;51.608;6.916;2023-04-03T12:51:52;16.90;99.90
15713;DHT22;7957;51.608;6.916;2023-04-03T12:54:22;16.90;99.90
15713;DHT22;7957;51.608;6.916;2023-04-03T12:56:49;16.90;99.90
15713;DHT22;7957;51.608;6.916;2023-04-03T12:59:20;16.80;99.90
15713;DHT22;7957;51.608;6.916;2023-04-03T13:01:53;16.80;99.90
15713;DHT22;7957;51.608;6.916;2023-04-03T13:04:21;16.80;99.90
15713;DHT22;7957;51.608;6.916;2023-04-03T13:06:48;16.70;99.90
15713;DHT22;7957;51.608;6.916;2023-04-03T13:09:22;16.60;99.90
15713;DHT22;7957;51.608;6.916;2023-04-03T13:11:53;16.60;99.90
15713;DHT22;7957;51.608;6.916;2023-04-03T13:14:24;16.40;99.90
15713;DHT22;7957;51.608;6.916;2023-04-03T13:16:56;16.30;99.90
15713;DHT22;7957;51.608;6.916;2023-04-03T13:19:24;16.20;99.90
15713;DHT22;7957;51.608;6.916;2023-04-03T13:21:56;16.10;99.90
15713;DHT22;7957;51.608;6.916;2023-04-03T13:24:26;16.00;90.40
15713;DHT22;7957;51.608;6.916;2023-04-03T13:26:55;15.80;45.90
15713;DHT22;7957;51.608;6.916;2023-04-03T13:29:25;15.70;23.70
15713;DHT22;7957;51.608;6.916;2023-04-03T13:31:54;15.60;7.50
15713;DHT22;7957;51.608;6.916;2023-04-03T13:34:23;15.40;1.00
15713;DHT22;7957;51.608;6.916;2023-04-03T13:36:59;15.30;1.00
15713;DHT22;7957;51.608;6.916;2023-04-03T13:39:29;15.00;1.00
15713;DHT22;7957;51.608;6.916;2023-04-03T13:41:58;14.90;1.00
15713;DHT22;7957;51.608;6.916;2023-04-03T13:44:32;14.90;1.00
15713;DHT22;7957;51.608;6.916;2023-04-03T13:47:01;14.70;1.00
15713;DHT22;7957;51.608;6.916;2023-04-03T13:49:42;14.60;1.00
15713;DHT22;7957;51.608;6.916;2023-04-03T13:52:22;14.50;1.00
15713;DHT22;7957;51.608;6.916;2023-04-03T13:54:56;14.50;1.00
15713;DHT22;7957;51.608;6.916;2023-04-03T13:57:23;14.40;1.00
15713;DHT22;7957;51.608;6.916;2023-04-03T13:59:50;14.20;1.00
15713;DHT22;7957;51.608;6.916;2023-04-03T14:02:20;14.20;1.00
15713;DHT22;7957;51.608;6.916;2023-04-03T14:04:52;14.10;1.00
15713;DHT22;7957;51.608;6.916;2023-04-03T14:07:22;14.00;1.00
15713;DHT22;7957;51.608;6.916;2023-04-03T14:09:50;14.00;1.00
15713;DHT22;7957;51.608;6.916;2023-04-03T14:12:24;14.00;1.00
15713;DHT22;7957;51.608;6.916;2023-04-03T14:14:52;13.90;1.00
15713;DHT22;7957;51.608;6.916;2023-04-03T14:17:22;13.90;1.00
15713;DHT22;7957;51.608;6.916;2023-04-03T14:19:50;13.80;1.00
15713;DHT22;7957;51.608;6.916;2023-04-03T14:22:20;13.80;1.00
15713;DHT22;7957;51.608;6.916;2023-04-03T14:24:48;13.70;1.00
15713;DHT22;7957;51.608;6.916;2023-04-03T14:27:20;13.60;1.00
15713;DHT22;7957;51.608;6.916;2023-04-03T14:29:48;13.50;1.00
15713;DHT22;7957;51.608;6.916;2023-04-03T14:32:17;13.40;1.00
15713;DHT22;7957;51.608;6.916;2023-04-03T14:34:45;13.40;1.00
15713;DHT22;7957;51.608;6.916;2023-04-03T14:37:14;13.40;1.00
15713;DHT22;7957;51.608;6.916;2023-04-03T14:39:42;13.30;1.00
15713;DHT22;7957;51.608;6.916;2023-04-03T14:42:15;13.20;1.00
15713;DHT22;7957;51.608;6.916;2023-04-03T14:44:44;13.20;1.00
15713;DHT22;7957;51.608;6.916;2023-04-03T14:47:12;13.10;1.00
15713;DHT22;7957;51.608;6.916;2023-04-03T14:49:41;13.10;1.00
15713;DHT22;7957;51.608;6.916;2023-04-03T14:52:18;13.00;1.00
15713;DHT22;7957;51.608;6.916;2023-04-03T14:54:45;13.00;1.00
15713;DHT22;7957;51.608;6.916;2023-04-03T14:57:14;12.90;1.00
15713;DHT22;7957;51.608;6.916;2023-04-03T14:59:43;12.80;1.00
15713;DHT22;7957;51.608;6.916;2023-04-03T15:02:25;12.70;1.00
15713;DHT22;7957;51.608;6.916;2023-04-03T15:04:52;12.70;1.00
15713;DHT22;7957;51.608;6.916;2023-04-03T15:07:19;12.60;1.00
15713;DHT22;7957;51.608;6.916;2023-04-03T15:09:46;12.60;1.00
15713;DHT22;7957;51.608;6.916;2023-04-03T15:12:13;12.60;1.00
15713;DHT22;7957;51.608;6.916;2023-04-03T15:14:40;12.50;1.00
15713;DHT22;7957;51.608;6.916;2023-04-03T15:17:13;12.50;1.00
15713;DHT22;7957;51.608;6.916;2023-04-03T15:19:41;12.40;1.00
15713;DHT22;7957;51.608;6.916;2023-04-03T15:22:09;12.30;1.00
15713;DHT22;7957;51.608;6.916;2023-04-03T15:24:40;12.20;1.00
15713;DHT22;7957;51.608;6.916;2023-04-03T15:27:07;12.10;1.00
15713;DHT22;7957;51.608;6.916;2023-04-03T15:29:33;12.10;1.00
15713;DHT22;7957;51.608;6.916;2023-04-03T15:32:00;12.00;1.00
15713;DHT22;7957;51.608;6.916;2023-04-03T15:34:29;12.00;1.00
15713;DHT22;7957;51.608;6.916;2023-04-03T15:36:56;12.00;1.00
15713;DHT22;7957;51.608;6.916;2023-04-03T15:39:24;12.00;1.00
15713;DHT22;7957;51.608;6.916;2023-04-03T15:41:52;11.90;1.00
15713;DHT22;7957;51.608;6.916;2023-04-03T15:44:19;11.90;1.00
15713;DHT22;7957;51.608;6.916;2023-04-03T15:46:47;11.80;1.00
15713;DHT22;7957;51.608;6.916;2023-04-03T15:49:16;11.70;1.00
15713;DHT22;7957;51.608;6.916;2023-04-03T15:51:47;11.70;1.00
15713;DHT22;7957;51.608;6.916;2023-04-03T15:54:15;11.60;99.90
15713;DHT22;7957;51.608;6.916;2023-04-03T15:56:42;11.50;99.90
15713;DHT22;7957;51.608;6.916;2023-04-03T15:59:09;11.30;99.90
15713;DHT22;7957;51.608;6.916;2023-04-03T16:01:36;11.20;99.90
15713;DHT22;7957;51.608;6.916;2023-04-03T16:04:04;11.10;99.90
15713;DHT22;7957;51.608;6.916;2023-04-03T16:06:31;11.00;99.90
15713;DHT22;7957;51.608;6.916;2023-04-03T16:09:00;10.90;99.90
15713;DHT22;7957;51.608;6.916;2023-04-03T16:11:28;10.80;99.90
15713;DHT22;7957;51.608;6.916;2023-04-03T16:13:55;10.70;99.90
15713;DHT22;7957;51.608;6.916;2023-04-03T16:16:22;10.60;1.00
15713;DHT22;7957;51.608;6.916;2023-04-03T16:18:50;10.50;1.00
15713;DHT22;7957;51.608;6.916;2023-04-03T16:21:17;10.40;1.00
15713;DHT22;7957;51.608;6.916;2023-04-03T16:23:45;10.30;1.00
15713;DHT22;7957;51.608;6.916;2023-04-03T16:26:13;10.20;1.00